createdAt,value
2022-08-11T00:00:20.972Z,14.42
2022-08-11T00:02:52.601Z,14.43
2022-08-11T00:05:21.457Z,14.36
2022-08-11T00:07:51.458Z,14.28
2022-08-11T00:10:23.861Z,14.25
2022-08-11T00:12:56.293Z,14.12
2022-08-11T00:15:24.608Z,14.11
2022-08-11T00:17:58.883Z,14.01
2022-08-11T00:20:32.517Z,13.90
2022-08-11T00:23:07.262Z,13.83
2022-08-11T00:25:40.909Z,13.77
2022-08-11T00:28:28.499Z,13.83
2022-08-11T00:30:57.462Z,13.74
2022-08-11T00:33:44.383Z,13.65
2022-08-11T00:36:15.356Z,13.62
2022-08-11T00:38:44.614Z,13.59
2022-08-11T00:41:17.956Z,13.52
2022-08-11T00:44:10.736Z,13.47
2022-08-11T00:47:12.238Z,13.40
2022-08-11T00:50:03.628Z,13.40
2022-08-11T00:52:48.169Z,13.31
2022-08-11T00:55:42.709Z,13.34
2022-08-11T00:58:59.098Z,13.30
2022-08-11T01:01:31.635Z,13.18
2022-08-11T01:04:26.164Z,12.98
2022-08-11T01:08:01.417Z,13.02
2022-08-11T01:10:47.812Z,12.92
2022-08-11T01:13:51.758Z,12.89
2022-08-11T01:16:46.183Z,12.76
2022-08-11T01:20:45.137Z,12.75
2022-08-11T01:22:40.262Z,12.88
2022-08-11T01:25:56.743Z,12.91
2022-08-11T01:28:59.058Z,12.93
2022-08-11T01:31:50.424Z,12.80
2022-08-11T01:34:50.829Z,12.71
2022-08-11T01:37:36.142Z,12.52
2022-08-11T01:40:23.193Z,12.50
2022-08-11T01:43:23.641Z,12.47
2022-08-11T01:46:32.747Z,12.47
2022-08-11T01:50:07.663Z,12.43
2022-08-11T01:52:33.676Z,12.40
2022-08-11T01:55:24.119Z,12.27
2022-08-11T01:58:06.654Z,12.36
2022-08-11T02:00:48.619Z,12.32
2022-08-11T02:03:27.676Z,12.30
2022-08-11T02:06:55.248Z,12.30
2022-08-11T02:09:49.870Z,12.22
2022-08-11T02:12:33.049Z,12.19
2022-08-11T02:15:29.237Z,12.14
2022-08-11T02:17:58.641Z,12.10
2022-08-11T02:21:15.118Z,12.07
2022-08-11T02:24:05.308Z,11.98
2022-08-11T02:26:44.482Z,11.80
2022-08-11T02:29:22.323Z,11.66
2022-08-11T02:32:39.342Z,11.77
2022-08-11T02:35:16.267Z,11.88
2022-08-11T02:37:52.351Z,11.88
2022-08-11T02:40:20.921Z,11.88
2022-08-11T02:43:16.506Z,11.82
2022-08-11T02:45:54.524Z,11.78
2022-08-11T02:48:39.649Z,11.76
2022-08-11T02:51:12.174Z,11.68
2022-08-11T02:53:56.330Z,11.67
2022-08-11T02:56:52.117Z,11.67
2022-08-11T02:59:50.203Z,11.63
2022-08-11T03:02:19.274Z,11.52
2022-08-11T03:05:02.420Z,11.48
2022-08-11T03:07:41.596Z,11.39
2022-08-11T03:10:29.787Z,11.34
2022-08-11T03:13:35.059Z,11.32
2022-08-11T03:16:46.550Z,11.34
2022-08-11T03:19:34.354Z,11.29
2022-08-11T03:22:13.249Z,11.24
2022-08-11T03:24:46.834Z,11.14
2022-08-11T03:27:13.233Z,11.18
2022-08-11T03:30:06.722Z,11.19
2022-08-11T03:32:42.253Z,11.24
2022-08-11T03:35:11.574Z,11.19
2022-08-11T03:38:02.715Z,11.12
2022-08-11T03:42:03.672Z,11.01
2022-08-11T03:44:10.687Z,10.93
2022-08-11T03:47:08.120Z,10.92
2022-08-11T03:50:11.974Z,10.90
2022-08-11T03:53:10.185Z,10.80
2022-08-11T03:56:04.068Z,10.82
2022-08-11T03:58:54.944Z,10.82
2022-08-11T04:01:36.516Z,10.77
2022-08-11T04:04:45.215Z,10.67
2022-08-11T04:07:52.583Z,10.71
2022-08-11T04:10:37.808Z,10.71
2022-08-11T04:13:26.784Z,10.64
2022-08-11T04:16:11.739Z,10.71
2022-08-11T04:19:06.434Z,10.67
2022-08-11T04:21:41.919Z,10.72
2022-08-11T04:24:38.083Z,10.70
2022-08-11T04:27:24.830Z,10.69
2022-08-11T04:30:05.505Z,10.60
2022-08-11T04:33:22.617Z,10.70
2022-08-11T04:36:09.525Z,10.70
2022-08-11T04:38:53.820Z,10.80
2022-08-11T04:41:27.967Z,10.82
2022-08-11T04:44:27.940Z,11.00
2022-08-11T04:47:05.255Z,11.04
2022-08-11T04:50:03.090Z,11.10
2022-08-11T04:53:01.274Z,11.13
2022-08-11T04:56:19.665Z,11.12
2022-08-11T04:59:19.460Z,11.19
2022-08-11T05:02:04.519Z,11.39
2022-08-11T05:05:32.402Z,11.45
2022-08-11T05:08:45.972Z,11.37
2022-08-11T05:11:30.657Z,11.57
2022-08-11T05:14:47.159Z,11.75
2022-08-11T05:17:40.686Z,11.76
2022-08-11T05:20:29.488Z,12.07
2022-08-11T05:23:20.079Z,12.21
2022-08-11T05:26:44.419Z,12.40
2022-08-11T05:29:21.438Z,13.55
2022-08-11T05:32:16.966Z,14.25
2022-08-11T05:34:56.811Z,14.42
2022-08-11T05:37:28.952Z,15.56
2022-08-11T05:40:25.929Z,17.34
2022-08-11T05:43:17.065Z,19.25
2022-08-11T05:46:06.254Z,21.07
2022-08-11T05:48:54.287Z,22.15
2022-08-11T05:51:54.972Z,22.93
2022-08-11T05:54:42.968Z,24.06
2022-08-11T05:57:39.551Z,24.64
2022-08-11T06:00:17.098Z,25.41
2022-08-11T06:02:49.333Z,25.93
2022-08-11T06:05:16.375Z,25.54
2022-08-11T06:07:49.541Z,26.01
2022-08-11T06:10:29.707Z,26.38
2022-08-11T06:12:58.201Z,26.79
2022-08-11T06:15:26.182Z,26.65
2022-08-11T06:17:53.982Z,27.52
2022-08-11T06:20:22.538Z,27.87
2022-08-11T06:22:57.481Z,27.10
2022-08-11T06:25:31.515Z,28.23
2022-08-11T06:27:59.361Z,28.47
2022-08-11T06:30:51.650Z,29.48
2022-08-11T06:33:39.608Z,29.39
2022-08-11T06:36:13.917Z,28.07
2022-08-11T06:38:56.718Z,28.56
2022-08-11T06:41:33.123Z,29.43
2022-08-11T06:44:11.744Z,31.01
2022-08-11T06:46:40.696Z,30.91
2022-08-11T06:49:29.442Z,30.97
2022-08-11T06:52:04.963Z,30.13
2022-08-11T06:54:41.360Z,30.93
2022-08-11T06:57:32.433Z,31.24
2022-08-11T07:00:22.545Z,30.35
2022-08-11T07:02:53.987Z,31.76
2022-08-11T07:05:49.620Z,31.32
2022-08-11T07:08:49.750Z,30.81
2022-08-11T07:12:22.448Z,31.14
2022-08-11T07:15:12.624Z,30.47
2022-08-11T07:17:49.943Z,32.09
2022-08-11T07:20:36.558Z,32.89
2022-08-11T07:23:26.538Z,33.87
2022-08-11T07:26:14.915Z,34.44
2022-08-11T07:28:56.122Z,34.40
2022-08-11T07:31:29.199Z,34.34
2022-08-11T07:34:18.516Z,34.31
2022-08-11T07:37:00.244Z,34.65
2022-08-11T07:39:31.648Z,34.83
2022-08-11T07:42:00.223Z,35.01
2022-08-11T07:44:34.965Z,34.88
2022-08-11T07:47:21.178Z,34.93
2022-08-11T07:50:08.929Z,35.13
2022-08-11T07:52:38.051Z,35.04
2022-08-11T07:55:08.457Z,34.88
2022-08-11T07:58:15.348Z,35.24
2022-08-11T08:01:10.771Z,35.07
2022-08-11T08:04:07.591Z,35.17
2022-08-11T08:06:52.663Z,35.23
2022-08-11T08:09:39.591Z,35.47
2022-08-11T08:12:26.684Z,35.71
2022-08-11T08:15:13.936Z,35.83
2022-08-11T08:18:09.996Z,35.66
2022-08-11T08:20:50.174Z,35.48
2022-08-11T08:23:32.842Z,35.65
2022-08-11T08:26:02.387Z,35.22
2022-08-11T08:28:32.504Z,34.98
2022-08-11T08:31:00.329Z,34.69
2022-08-11T08:33:30.369Z,34.70
2022-08-11T08:36:12.888Z,33.68
2022-08-11T08:38:50.645Z,32.05
2022-08-11T08:41:24.906Z,32.14
2022-08-11T08:43:56.415Z,31.36
2022-08-11T08:46:30.443Z,30.79
2022-08-11T08:49:01.981Z,31.66
2022-08-11T08:52:00.949Z,32.33
2022-08-11T08:54:26.453Z,32.88
2022-08-11T08:56:56.089Z,32.62
2022-08-11T08:59:26.054Z,32.04
2022-08-11T09:02:02.720Z,32.40
2022-08-11T09:04:31.050Z,32.36
2022-08-11T09:07:03.456Z,32.63
2022-08-11T09:09:31.918Z,31.89
2022-08-11T09:11:58.991Z,31.93
2022-08-11T09:14:50.789Z,32.09
2022-08-11T09:17:19.536Z,31.86
2022-08-11T09:19:49.461Z,32.01
2022-08-11T09:22:42.205Z,31.10
2022-08-11T09:25:27.966Z,29.96
2022-08-11T09:27:56.557Z,29.91
2022-08-11T09:30:27.871Z,30.24
2022-08-11T09:32:58.123Z,30.55
2022-08-11T09:35:29.465Z,31.17
2022-08-11T09:38:16.682Z,31.65
2022-08-11T09:40:52.725Z,32.30
2022-08-11T09:43:43.718Z,30.88
2022-08-11T09:46:11.154Z,30.34
2022-08-11T09:48:43.270Z,29.76
2022-08-11T09:51:10.811Z,29.61
2022-08-11T09:53:41.333Z,29.72
2022-08-11T09:56:31.723Z,29.73
2022-08-11T09:58:59.391Z,30.53
2022-08-11T10:01:30.693Z,30.02
2022-08-11T10:04:12.392Z,29.97
2022-08-11T10:06:58.229Z,30.55
2022-08-11T10:09:25.635Z,31.38
2022-08-11T10:11:58.104Z,31.26
2022-08-11T10:14:45.574Z,30.35
2022-08-11T10:17:14.791Z,29.50
2022-08-11T10:19:43.515Z,30.04
2022-08-11T10:22:29.078Z,30.56
2022-08-11T10:25:20.183Z,30.62
2022-08-11T10:28:32.659Z,31.45
2022-08-11T10:31:05.774Z,31.76
2022-08-11T10:33:59.336Z,32.61
2022-08-11T10:36:44.250Z,33.62
2022-08-11T10:39:17.096Z,34.57
2022-08-11T10:42:07.730Z,33.88
2022-08-11T10:44:40.859Z,33.65
2022-08-11T10:47:26.477Z,32.81
2022-08-11T10:50:12.508Z,32.97
2022-08-11T10:52:58.684Z,32.80
2022-08-11T10:55:45.402Z,34.35
2022-08-11T10:58:31.791Z,34.52
2022-08-11T11:01:00.702Z,33.82
2022-08-11T11:03:31.203Z,32.67
2022-08-11T11:06:27.807Z,33.20
2022-08-11T11:09:04.525Z,33.02
2022-08-11T11:11:55.641Z,33.61
2022-08-11T11:14:46.190Z,33.10
2022-08-11T11:17:53.396Z,32.63
2022-08-11T11:20:34.753Z,32.76
2022-08-11T11:23:10.111Z,34.17
2022-08-11T11:26:11.716Z,34.72
2022-08-11T11:28:56.151Z,35.75
2022-08-11T11:31:56.764Z,35.68
2022-08-11T11:34:54.004Z,35.50
2022-08-11T11:37:23.167Z,35.36
2022-08-11T11:39:50.336Z,35.64
2022-08-11T11:42:18.974Z,35.55
2022-08-11T11:44:47.009Z,35.36
2022-08-11T11:47:14.471Z,34.40
2022-08-11T11:49:45.148Z,32.16
2022-08-11T11:52:18.941Z,31.88
2022-08-11T11:54:52.024Z,32.49
2022-08-11T11:57:39.774Z,32.33
2022-08-11T12:00:33.806Z,32.29
2022-08-11T12:03:05.043Z,31.25
2022-08-11T12:05:34.409Z,31.72
2022-08-11T12:08:17.630Z,32.18
2022-08-11T12:11:23.163Z,32.02
2022-08-11T12:13:52.693Z,32.60
2022-08-11T12:16:34.023Z,32.99
2022-08-11T12:19:06.541Z,33.18
2022-08-11T12:21:36.122Z,33.18
2022-08-11T12:24:22.128Z,33.49
2022-08-11T12:27:16.625Z,32.64
2022-08-11T12:29:36.383Z,32.60
2022-08-11T12:32:08.434Z,32.83
2022-08-11T12:34:35.488Z,33.16
2022-08-11T12:37:05.755Z,32.59
2022-08-11T12:40:15.869Z,32.94
2022-08-11T12:43:04.020Z,32.04
2022-08-11T12:45:38.429Z,32.01
2022-08-11T12:48:57.963Z,31.72
2022-08-11T12:52:01.433Z,32.65
2022-08-11T12:54:41.935Z,33.08
2022-08-11T12:57:49.654Z,34.40
2022-08-11T13:00:36.948Z,35.05
2022-08-11T13:03:24.146Z,34.67
2022-08-11T13:05:54.443Z,36.22
2022-08-11T13:08:24.981Z,36.27
2022-08-11T13:11:15.596Z,36.64
2022-08-11T13:13:54.497Z,36.33
2022-08-11T13:16:57.857Z,36.50
2022-08-11T13:19:25.261Z,37.18
2022-08-11T13:21:53.345Z,38.57
2022-08-11T13:24:21.598Z,39.70
2022-08-11T13:26:50.827Z,39.85
2022-08-11T13:29:22.963Z,37.96
2022-08-11T13:31:50.464Z,35.48
2022-08-11T13:34:20.067Z,35.72
2022-08-11T13:36:50.333Z,35.58
2022-08-11T13:39:18.195Z,35.82
2022-08-11T13:41:47.781Z,36.20
2022-08-11T13:44:21.636Z,35.87
2022-08-11T13:46:53.103Z,36.25
2022-08-11T13:49:21.936Z,37.63
2022-08-11T13:51:49.487Z,38.38
2022-08-11T13:54:19.815Z,39.23
2022-08-11T13:56:52.734Z,40.12
2022-08-11T13:59:23.805Z,40.20
2022-08-11T14:02:20.771Z,40.39
2022-08-11T14:04:56.996Z,40.07
2022-08-11T14:07:27.428Z,40.15
2022-08-11T14:09:58.063Z,40.34
2022-08-11T14:12:47.806Z,39.19
2022-08-11T14:15:28.915Z,40.31
2022-08-11T14:18:03.131Z,40.53
2022-08-11T14:20:50.811Z,40.43
2022-08-11T14:23:19.460Z,38.48
2022-08-11T14:26:04.721Z,38.18
2022-08-11T14:28:40.030Z,38.57
2022-08-11T14:31:09.300Z,38.08
2022-08-11T14:33:58.773Z,37.67
2022-08-11T14:36:26.306Z,36.80
2022-08-11T14:38:54.278Z,34.71
2022-08-11T14:42:07.650Z,33.51
2022-08-11T14:44:47.548Z,33.29
2022-08-11T14:47:23.250Z,33.28
2022-08-11T14:50:09.719Z,33.26
2022-08-11T14:52:38.850Z,33.40
2022-08-11T14:55:26.070Z,33.26
2022-08-11T14:57:54.897Z,33.01
2022-08-11T15:00:23.416Z,32.66
2022-08-11T15:03:08.465Z,32.86
2022-08-11T15:05:36.460Z,31.84
2022-08-11T15:08:05.465Z,31.56
2022-08-11T15:10:32.600Z,31.37
2022-08-11T15:13:00.555Z,31.51
2022-08-11T15:15:46.779Z,31.89
2022-08-11T15:18:18.478Z,32.30
2022-08-11T15:21:04.026Z,32.60
2022-08-11T15:23:49.691Z,32.65
2022-08-11T15:26:42.866Z,32.66
2022-08-11T15:29:31.282Z,32.68
2022-08-11T15:32:17.169Z,31.99
2022-08-11T15:35:06.589Z,31.86
2022-08-11T15:37:35.581Z,31.51
2022-08-11T15:40:46.919Z,31.54
2022-08-11T15:43:39.594Z,31.80
2022-08-11T15:46:19.808Z,31.83
2022-08-11T15:48:51.386Z,31.50
2022-08-11T15:51:25.185Z,31.45
2022-08-11T15:54:07.103Z,31.20
2022-08-11T15:56:41.666Z,31.46
2022-08-11T15:59:43.014Z,31.55
2022-08-11T16:02:17.467Z,31.52
2022-08-11T16:04:46.329Z,30.98
2022-08-11T16:07:19.174Z,30.65
2022-08-11T16:09:57.026Z,30.61
2022-08-11T16:12:30.564Z,30.49
2022-08-11T16:15:20.615Z,30.61
2022-08-11T16:17:51.571Z,30.35
2022-08-11T16:20:21.912Z,30.38
2022-08-11T16:23:01.229Z,30.16
2022-08-11T16:26:38.023Z,30.27
2022-08-11T16:28:18.739Z,30.32
2022-08-11T16:30:46.623Z,30.22
2022-08-11T16:33:48.237Z,30.07
2022-08-11T16:36:22.553Z,30.04
2022-08-11T16:38:49.564Z,30.18
2022-08-11T16:41:38.411Z,30.12
2022-08-11T16:44:36.876Z,29.91
2022-08-11T16:47:07.117Z,29.97
2022-08-11T16:49:37.612Z,29.91
2022-08-11T16:52:10.884Z,29.69
2022-08-11T16:54:40.299Z,29.53
2022-08-11T16:57:34.744Z,29.57
2022-08-11T17:00:06.605Z,29.43
2022-08-11T17:02:55.616Z,29.44
2022-08-11T17:05:53.924Z,29.43
2022-08-11T17:08:55.895Z,29.34
2022-08-11T17:11:46.363Z,29.34
2022-08-11T17:14:35.579Z,29.41
2022-08-11T17:17:06.032Z,29.34
2022-08-11T17:20:39.528Z,29.43
2022-08-11T17:22:48.412Z,29.26
2022-08-11T17:25:17.365Z,29.22
2022-08-11T17:27:46.544Z,29.27
2022-08-11T17:30:14.792Z,29.23
2022-08-11T17:33:07.286Z,29.29
2022-08-11T17:35:38.790Z,29.14
2022-08-11T17:38:10.640Z,29.02
2022-08-11T17:40:39.803Z,28.97
2022-08-11T17:43:27.208Z,28.82
2022-08-11T17:46:14.123Z,28.77
2022-08-11T17:48:47.409Z,28.71
2022-08-11T17:51:38.575Z,28.65
2022-08-11T17:54:26.270Z,28.51
2022-08-11T17:57:20.405Z,28.42
2022-08-11T17:59:52.802Z,28.34
2022-08-11T18:02:42.422Z,28.32
2022-08-11T18:05:13.374Z,28.08
2022-08-11T18:08:01.642Z,28.05
2022-08-11T18:10:49.520Z,28.04
2022-08-11T18:13:41.309Z,27.88
2022-08-11T18:16:27.223Z,27.82
2022-08-11T18:19:13.271Z,27.63
2022-08-11T18:22:14.614Z,27.59
2022-08-11T18:25:09.801Z,27.57
2022-08-11T18:27:59.140Z,27.43
2022-08-11T18:30:45.627Z,27.34
2022-08-11T18:34:05.466Z,27.23
2022-08-11T18:36:45.468Z,27.17
2022-08-11T18:39:33.090Z,27.02
2022-08-11T18:42:29.555Z,26.87
2022-08-11T18:45:18.899Z,26.64
2022-08-11T18:48:07.422Z,26.55
2022-08-11T18:51:29.501Z,26.40
2022-08-11T18:54:05.982Z,26.29
2022-08-11T18:56:51.605Z,26.17
2022-08-11T18:59:38.798Z,26.05
2022-08-11T19:02:25.051Z,25.89
2022-08-11T19:05:11.170Z,25.75
2022-08-11T19:07:58.247Z,25.61
2022-08-11T19:10:43.851Z,25.43
2022-08-11T19:13:29.310Z,25.27
2022-08-11T19:16:15.080Z,25.13
2022-08-11T19:19:03.834Z,24.96
2022-08-11T19:21:49.626Z,24.86
2022-08-11T19:24:35.443Z,24.74
2022-08-11T19:27:21.463Z,24.65
2022-08-11T19:30:13.944Z,24.54
2022-08-11T19:33:00.487Z,24.47
2022-08-11T19:35:47.042Z,24.34
2022-08-11T19:38:32.867Z,24.16
2022-08-11T19:41:56.627Z,23.99
2022-08-11T19:44:24.914Z,23.82
2022-08-11T19:47:11.202Z,23.71
2022-08-11T19:50:00.773Z,23.59
2022-08-11T19:52:47.117Z,23.40
2022-08-11T19:55:33.731Z,23.27
2022-08-11T19:58:20.872Z,23.14
2022-08-11T20:01:07.371Z,23.00
2022-08-11T20:03:52.663Z,22.85
2022-08-11T20:06:38.967Z,22.62
2022-08-11T20:09:25.699Z,22.36
2022-08-11T20:12:30.766Z,22.05
2022-08-11T20:15:17.601Z,21.76
2022-08-11T20:18:03.907Z,21.64
2022-08-11T20:20:50.463Z,21.49
2022-08-11T20:23:36.255Z,21.41
2022-08-11T20:26:31.759Z,21.29
2022-08-11T20:29:18.748Z,20.83
2022-08-11T20:32:09.258Z,20.79
2022-08-11T20:34:57.303Z,20.59
2022-08-11T20:37:50.226Z,20.46
2022-08-11T20:40:39.790Z,20.16
2022-08-11T20:44:08.223Z,20.25
2022-08-11T20:46:37.148Z,20.09
2022-08-11T20:49:24.695Z,19.91
2022-08-11T20:52:10.750Z,19.83
2022-08-11T20:54:57.540Z,19.56
2022-08-11T20:57:59.419Z,19.20
2022-08-11T21:00:50.950Z,19.30
2022-08-11T21:03:45.228Z,19.30
2022-08-11T21:06:44.125Z,19.00
2022-08-11T21:10:01.241Z,18.89
2022-08-11T21:12:38.093Z,18.95
2022-08-11T21:15:46.880Z,18.84
2022-08-11T21:18:33.468Z,18.86
2022-08-11T21:21:25.200Z,18.57
2022-08-11T21:24:12.584Z,18.11
2022-08-11T21:27:03.823Z,18.31
2022-08-11T21:29:52.762Z,18.19
2022-08-11T21:32:40.252Z,18.18
2022-08-11T21:35:27.889Z,17.98
2022-08-11T21:38:15.136Z,18.04
2022-08-11T21:41:00.699Z,17.91
2022-08-11T21:43:51.218Z,17.84
2022-08-11T21:46:42.475Z,17.76
2022-08-11T21:49:28.859Z,17.84
2022-08-11T21:52:14.044Z,17.61
2022-08-11T21:54:59.668Z,17.50
2022-08-11T21:57:48.115Z,17.39
2022-08-11T22:00:35.480Z,17.42
2022-08-11T22:03:21.250Z,17.33
2022-08-11T22:06:07.802Z,17.19
2022-08-11T22:08:52.961Z,17.06
2022-08-11T22:11:38.905Z,16.99
2022-08-11T22:14:24.211Z,16.89
2022-08-11T22:17:09.763Z,16.90
2022-08-11T22:19:56.222Z,16.60
2022-08-11T22:22:53.278Z,16.66
2022-08-11T22:25:51.037Z,16.65
2022-08-11T22:28:37.587Z,16.58
2022-08-11T22:31:24.365Z,16.39
2022-08-11T22:34:09.468Z,16.02
2022-08-11T22:36:55.557Z,16.13
2022-08-11T22:39:43.227Z,16.17
2022-08-11T22:42:33.938Z,16.17
2022-08-11T22:45:19.632Z,15.87
2022-08-11T22:48:06.530Z,16.00
2022-08-11T22:50:52.643Z,16.11
2022-08-11T22:53:55.220Z,15.62
2022-08-11T22:56:43.893Z,15.74
2022-08-11T22:59:29.067Z,15.82
2022-08-11T23:02:14.384Z,15.66
2022-08-11T23:05:00.173Z,15.64
2022-08-11T23:07:51.454Z,15.78
2022-08-11T23:10:38.939Z,15.82
2022-08-11T23:13:25.622Z,15.78
2022-08-11T23:16:13.052Z,15.51
2022-08-11T23:18:59.598Z,15.53
2022-08-11T23:21:46.700Z,15.50
2022-08-11T23:24:32.421Z,15.46
2022-08-11T23:27:18.932Z,15.44
2022-08-11T23:30:06.255Z,15.47
2022-08-11T23:32:51.990Z,15.47
2022-08-11T23:35:53.637Z,15.32
2022-08-11T23:38:42.331Z,15.23
2022-08-11T23:41:27.538Z,15.09
2022-08-11T23:44:13.252Z,15.19
2022-08-11T23:46:58.826Z,15.06
2022-08-11T23:49:44.918Z,15.10
2022-08-11T23:52:30.899Z,14.76
2022-08-11T23:55:17.630Z,14.85
2022-08-11T23:58:02.911Z,14.76
